Latest Weather Observations for Launceston Airport

IDT60801

Issued at 6:31 pm EDT Monday 22 December 2014 (issued every 30 minutes, with the page automatically refreshed every 10 minutes)

About weather observations | Map of weather stations | Latest weather observations for TAS | Other Formats
Station Details ID: 091311 Name: LAUNCESTON AIRPORT Lat: -41.55 Lon: 147.21 Height: 166.9 m
Data from the previous 72 hours. | See also: Recent months at Launceston Airport
Date/Time
EDT
Temp
°C
App
Temp
°C
Dew
Point
Rel
Hum
%
Delta-T
°C
Wind Press
QNH
hPa
Press
MSL
hPa
Rain
since 9 am
mm
Dir
 
Spd
km/h
Gust
km/h
Spd
kts
Gust
kts
22/06:30pm 21.7 20.4 11.1 51 5.9 ESE 9 11 5 6 1011.1 1010.9 0.0
22/06:00pm 21.4 19.6 10.9 51 5.8 ENE 11 15 6 8 1011.6 1011.4 0.0
22/05:30pm 21.2 20.1 10.7 51 5.8 NNE 7 9 4 5 1012.4 1012.1 0.0
22/05:00pm 20.4 19.1 12.4 60 4.5 NNE 11 13 6 7 1013.0 1012.8 0.0
22/04:30pm 21.1 20.6 10.6 51 5.8 N 4 9 2 5 1013.4 1013.2 0.0
22/04:00pm 22.1 19.2 8.2 41 7.4 W 13 19 7 10 1013.8 1013.6 0.0
22/03:30pm 22.2 20.1 11.3 50 6.1 NNW 13 17 7 9 1014.0 1013.8 0.0
22/03:00pm 22.6 19.3 9.7 44 7.0 NNW 17 22 9 12 1014.3 1014.1 0.0
22/02:30pm 23.2 19.5 9.6 42 7.4 NNW 19 28 10 15 1014.5 1014.3 0.0
22/02:00pm 22.3 17.9 9.1 43 7.1 NNW 22 28 12 15 1014.9 1014.7 0.0
22/01:30pm 22.8 18.6 9.6 43 7.2 NW 22 30 12 16 1015.0 1014.8 0.0
22/01:00pm 22.0 17.0 8.2 41 7.3 NW 24 32 13 17 1015.1 1014.9 0.0
22/12:30pm 22.1 17.0 7.5 39 7.6 NW 24 33 13 18 1015.0 1014.8 0.0
22/12:00pm 22.5 17.6 6.7 36 8.2 NNW 22 32 12 17 1014.9 1014.7 0.0
22/11:30am 22.6 18.9 8.0 39 7.7 NW 17 28 9 15 1015.1 1014.9 0.0
22/11:00am 21.2 18.6 9.4 47 6.4 NW 13 22 7 12 1015.1 1014.9 0.0
22/10:30am 19.7 18.2 10.4 55 5.1 NW 9 17 5 9 1015.1 1014.9 0.0
22/10:00am 18.6 17.0 10.2 58 4.5 WNW 9 17 5 9 1015.6 1015.4 0.0
22/09:30am 17.4 16.4 10.3 63 3.8 NW 6 9 3 5 1015.8 1015.6 0.0
22/09:00am 16.7 15.8 11.2 70 3.0 SSW 7 11 4 6 1015.8 1015.6 0.0
22/08:30am 16.7 16.8 11.6 72 2.8 E 2 7 1 4 1015.9 1015.7 0.0
22/08:00am 15.6 16.0 11.2 75 2.4 CALM 0 0 0 0 1015.9 1015.7 0.0
22/07:30am 14.1 14.4 10.9 81 1.7 CALM 0 0 0 0 1015.5 1015.3 0.0
22/07:00am 13.5 13.9 11.4 87 1.1 CALM 0 0 0 0 1015.2 1015.0 0.0
22/06:30am 11.0 10.2 9.8 92 0.6 NW 4 7 2 4 1015.2 1015.0 0.0
22/05:47am 10.0 8.3 8.4 90 0.8 NNE 7 11 4 6 1014.9 1014.7 0.0
22/05:30am 11.3 9.9 9.7 90 0.8 NNW 7 9 4 5 1014.8 1014.6 0.0
22/05:00am 12.4 12.2 10.5 88 1.0 NE 2 7 1 4 1014.6 1014.4 0.0
22/04:30am 12.5 12.7 10.6 88 1.0 CALM 0 0 0 0 1014.2 1014.0 0.0
22/04:00am 12.7 12.9 10.6 87 1.1 CALM 0 0 0 0 1014.3 1014.1 0.0
22/03:30am 12.7 11.8 10.8 88 1.0 E 6 7 3 4 1014.4 1014.2 0.0
22/03:00am 12.6 12.0 10.5 87 1.1 NE 4 7 2 4 1014.7 1014.5 0.0
22/02:30am 12.6 12.1 10.7 88 1.0 E 4 9 2 5 1014.7 1014.5 0.0
22/02:00am 12.7 11.8 10.8 88 1.0 NE 6 9 3 5 1014.7 1014.5 0.0
22/01:30am 12.2 10.7 10.4 89 0.9 NNE 9 11 5 6 1014.6 1014.4 0.0
22/01:00am 13.6 11.5 11.1 85 1.3 N 13 17 7 9 1014.5 1014.3 0.0
22/12:30am 13.9 11.9 11.4 85 1.3 N 13 17 7 9 1014.4 1014.2 0.0
 
Date/Time
EDT
Temp
°C
App
Temp
°C
Dew
Point
Rel
Hum
%
Delta-T
°C
Wind Press
QNH
hPa
Press
MSL
hPa
Rain
since 9 am
mm
Dir
 
Spd
km/h
Gust
km/h
Spd
kts
Gust
kts
21/11:30pm 14.1 12.6 12.0 87 1.1 N 11 15 6 8 1014.3 1014.1 0.0
21/11:00pm 13.7 11.7 11.4 86 1.2 NNW 13 17 7 9 1014.3 1014.1 0.0
21/10:30pm 14.0 10.9 11.5 85 1.3 NNW 19 24 10 13 1014.1 1013.9 0.0
21/10:00pm 14.4 11.3 11.7 84 1.5 NNW 19 24 10 13 1014.0 1013.8 0.0
21/09:50pm 14.2 11.1 11.7 85 1.4 NNW 19 28 10 15 1013.9 1013.7 0.0
21/09:30pm 13.8 10.0 11.3 85 1.3 NNW 22 30 12 16 1013.5 1013.3 0.0
21/09:00pm 14.0 9.9 11.3 84 1.4 NNW 24 32 13 17 1013.0 1012.8 0.0
21/08:30pm 14.5 9.5 11.1 80 1.8 NNW 28 37 15 20 1012.4 1012.1 0.0
21/08:00pm 15.3 9.5 10.9 75 2.4 NNW 32 41 17 22 1012.2 1011.9 0.0
21/07:30pm 16.5 10.2 11.0 70 3.0 NNW 35 44 19 24 1012.1 1011.8 0.0
21/07:00pm 16.8 10.9 11.3 70 3.0 NW 33 44 18 24 1012.1 1011.8 0.0
21/06:30pm 17.0 10.7 11.1 68 3.2 NW 35 43 19 23 1011.8 1011.6 0.0
21/06:00pm 17.8 11.8 10.9 64 3.8 NNW 33 46 18 25 1012.0 1011.7 0.0
21/05:30pm 18.6 13.0 11.4 63 4.0 NW 32 39 17 21 1012.4 1012.1 0.0
21/05:00pm 18.5 12.8 11.1 62 4.1 NNW 32 43 17 23 1012.2 1011.9 0.0
21/04:30pm 19.9 13.8 11.9 60 4.5 NW 35 46 19 25 1012.0 1011.7 0.0
21/04:00pm 19.0 12.4 11.3 61 4.2 NNW 37 48 20 26 1011.8 1011.6 0.0
21/03:30pm 19.2 12.4 10.7 58 4.6 NNW 37 50 20 27 1012.4 1012.1 0.0
21/03:00pm 21.0 13.7 10.2 50 5.9 NNW 39 48 21 26 1012.3 1012.0 0.0
21/02:30pm 19.8 12.9 8.8 49 5.8 NW 35 48 19 26 1012.5 1012.2 0.0
21/02:00pm 22.6 15.8 10.7 47 6.6 NNW 37 48 20 26 1012.8 1012.5 0.0
21/01:30pm 22.5 15.2 7.1 37 8.0 NNW 35 44 19 24 1012.7 1012.4 0.0
21/01:00pm 22.4 15.7 7.4 38 7.8 NNW 32 43 17 23 1013.2 1013.0 0.0
21/12:30pm 22.0 15.4 7.8 40 7.5 NNW 32 43 17 23 1013.5 1013.3 0.0
21/12:00pm 21.5 15.4 8.4 43 6.9 NNW 30 41 16 22 1013.6 1013.4 0.0
21/11:30am 21.4 16.2 9.0 45 6.6 NW 26 39 14 21 1014.2 1014.0 0.0
21/11:00am 20.1 15.7 8.8 48 6.0 NNW 22 30 12 16 1014.4 1014.2 0.0
21/10:30am 19.7 14.5 9.0 50 5.7 NW 26 35 14 19 1014.6 1014.4 0.0
21/10:00am 19.2 15.4 9.9 55 5.0 NW 20 32 11 17 1015.0 1014.8 0.0
21/09:30am 18.2 13.7 8.7 54 5.0 NW 22 30 12 16 1015.1 1014.9 0.0
21/09:00am 17.4 14.7 10.3 63 3.8 NNW 15 24 8 13 1015.2 1015.0 0.0
21/08:30am 15.8 14.6 10.3 70 2.9 NNW 7 11 4 6 1015.0 1014.8 0.0
21/08:00am 15.0 14.0 11.0 77 2.1 NW 7 11 4 6 1014.9 1014.7 0.0
21/07:30am 13.4 12.6 9.8 79 1.9 ENE 4 7 2 4 1014.9 1014.7 0.0
21/07:00am 12.1 10.8 10.0 87 1.1 NE 7 9 4 5 1015.2 1015.0 0.0
21/06:30am 10.5 10.4 9.3 92 0.6 CALM 0 0 0 0 1015.7 1015.5 0.0
21/06:00am 9.9 9.6 8.5 91 0.7 CALM 0 0 0 0 1015.3 1015.1 0.0
21/05:30am 10.2 9.6 8.8 91 0.7 W 2 9 1 5 1015.1 1014.9 0.0
21/05:00am 10.9 9.6 9.2 89 0.9 WNW 6 9 3 5 1014.7 1014.5 0.0
21/04:30am 10.4 9.0 8.8 90 0.8 NE 6 7 3 4 1014.4 1014.2 0.0
21/04:00am 11.7 9.9 9.4 86 1.2 W 9 13 5 7 1014.3 1014.1 0.0
21/03:30am 11.5 11.0 9.2 86 1.2 WSW 2 7 1 4 1014.3 1014.1 0.0
21/03:00am 11.7 10.3 9.4 86 1.2 SW 7 9 4 5 1014.5 1014.3 0.0
21/02:30am 11.3 9.9 9.4 88 1.0 SW 7 9 4 5 1014.6 1014.4 0.0
21/02:00am 11.4 9.6 9.3 87 1.1 SSW 9 11 5 6 1014.8 1014.6 0.0
21/01:30am 11.5 9.6 9.2 86 1.2 SW 9 11 5 6 1015.1 1014.9 0.0
21/01:00am 11.5 9.6 9.2 86 1.2 SSW 9 11 5 6 1015.1 1014.9 0.0
21/12:30am 12.0 10.2 9.6 85 1.2 S 9 15 5 8 1015.2 1015.0 0.0
21/12:00am 12.5 10.4 9.7 83 1.4 S 11 13 6 7 1015.2 1015.0 0.0
 
Date/Time
EDT
Temp
°C
App
Temp
°C
Dew
Point
Rel
Hum
%
Delta-T
°C
Wind Press
QNH
hPa
Press
MSL
hPa
Rain
since 9 am
mm
Dir
 
Spd
km/h
Gust
km/h
Spd
kts
Gust
kts
20/11:30pm 12.9 10.3 9.5 80 1.7 SSE 13 17 7 9 1015.1 1014.9 0.0
20/11:00pm 13.9 12.2 9.7 76 2.2 SSE 9 13 5 7 1014.9 1014.7 0.0
20/10:30pm 13.9 11.0 9.7 76 2.2 SSE 15 20 8 11 1014.6 1014.4 0.0
20/10:00pm 14.6 11.3 9.6 72 2.6 SE 17 22 9 12 1014.4 1014.2 0.0
20/09:30pm 15.7 12.0 9.4 66 3.3 SSE 19 22 10 12 1014.1 1013.9 0.0
20/09:00pm 16.9 13.7 8.3 57 4.4 SSE 15 19 8 10 1013.7 1013.5 0.0
20/08:30pm 18.9 14.6 7.0 46 6.0 SSE 19 22 10 12 1013.5 1013.3 0.0
20/08:00pm 20.9 16.8 6.4 39 7.4 SSE 17 24 9 13 1013.2 1013.0 0.0
20/07:30pm 22.0 17.3 5.0 33 8.5 W 19 24 10 13 1012.5 1012.2 0.0
20/07:00pm 22.6 17.6 4.6 31 8.9 W 20 26 11 14 1012.1 1011.8 0.0
20/06:30pm 22.9 18.4 4.4 30 9.2 WSW 17 20 9 11 1011.7 1011.5 0.0
20/06:00pm 23.4 18.5 4.9 30 9.3 WNW 20 28 11 15 1011.4 1011.2 0.0
20/05:30pm 23.4 18.5 4.9 30 9.3 W 20 28 11 15 1011.3 1011.1 0.0
20/05:00pm 23.6 19.8 6.0 32 9.0 W 15 26 8 14 1011.4 1011.2 0.0
20/04:30pm 22.5 18.1 4.5 31 8.9 W 17 26 9 14 1011.6 1011.4 0.0
20/04:00pm 23.7 19.4 5.1 30 9.4 WNW 17 32 9 17 1011.5 1011.3 0.0
20/03:30pm 23.0 18.1 5.0 31 9.0 WNW 20 32 11 17 1011.7 1011.5 0.0
20/03:00pm 23.7 19.1 5.6 31 9.2 NW 19 32 10 17 1011.8 1011.6 0.0
20/02:30pm 23.2 18.0 5.6 32 8.9 WNW 22 35 12 19 1011.8 1011.6 0.0
20/02:00pm 22.7 17.8 6.9 36 8.2 NW 22 32 12 17 1012.0 1011.7 0.0
20/01:30pm 22.7 17.0 6.9 36 8.2 WNW 26 39 14 21 1012.0 1011.7 0.0
20/01:00pm 22.5 17.5 9.6 44 7.0 WNW 26 37 14 20 1012.3 1012.0 0.0
20/12:30pm 21.1 15.4 8.4 44 6.7 WNW 28 37 15 20 1012.3 1012.0 0.0
20/12:16pm 22.0 15.8 7.8 40 7.5 WNW 30 48 16 26 1012.4 1012.1 0.0
20/12:00pm 21.2 15.5 8.5 44 6.7 WNW 28 41 15 22 1012.6 1012.3 0.0
20/11:30am 21.1 15.4 9.7 48 6.2 WNW 30 44 16 24 1012.8 1012.5 0.0
20/11:00am 19.6 14.7 9.8 53 5.3 WNW 26 37 14 20 1012.8 1012.5 0.0
20/10:30am 19.6 14.0 10.3 55 5.0 NW 30 37 16 20 1013.0 1012.8 0.0
20/10:00am 18.4 13.7 10.7 61 4.2 NW 26 35 14 19 1013.3 1013.1 0.0
20/09:30am 17.3 13.8 10.9 66 3.5 NW 20 24 11 13 1013.4 1013.2 0.0
20/09:00am 15.2 10.6 9.8 70 2.8 NNW 24 32 13 17 1013.6 1013.4 0.2
20/08:45am 14.8 9.8 9.6 71 2.7 NNW 26 33 14 18 1013.6 1013.4 0.2
20/08:30am 14.4 8.7 9.8 74 2.4 NNW 30 35 16 19 1013.4 1013.2 0.2
20/08:00am 13.3 9.0 9.5 78 2.0 NNW 22 32 12 17 1013.3 1013.1 0.2
20/07:30am 12.2 8.4 9.0 81 1.6 NNW 19 28 10 15 1013.3 1013.1 0.2
20/07:00am 11.9 8.4 8.6 80 1.7 NNW 17 26 9 14 1013.1 1012.9 0.2
20/06:30am 11.5 7.5 8.2 80 1.6 NNW 19 24 10 13 1013.1 1012.9 0.2
20/06:00am 11.2 6.9 7.7 79 1.7 NNW 20 26 11 14 1012.9 1012.6 0.2
20/05:30am 10.7 6.4 7.0 78 1.8 NNW 19 22 10 12 1012.9 1012.6 0.2
20/05:00am 9.9 5.7 5.9 76 1.9 NNW 17 20 9 11 1012.9 1012.6 0.2
20/04:30am 10.1 5.9 5.7 74 2.0 NNW 17 20 9 11 1012.8 1012.5 0.2
20/04:00am 10.0 5.2 5.6 74 2.0 NNW 20 26 11 14 1012.9 1012.6 0.2
20/03:30am 10.0 5.4 5.6 74 2.0 NNW 19 22 10 12 1013.0 1012.8 0.2
20/03:00am 10.0 6.1 5.2 72 2.2 NNW 15 17 8 9 1013.3 1013.1 0.2
20/02:30am 10.7 6.8 5.5 70 2.4 NNW 15 17 8 9 1013.6 1013.4 0.2
20/02:00am 10.6 6.6 4.7 67 2.7 NNW 15 19 8 10 1014.0 1013.8 0.2
20/01:30am 10.6 6.6 4.9 68 2.6 N 15 19 8 10 1014.2 1014.0 0.2
20/01:00am 10.0 5.9 4.6 69 2.4 NNW 15 19 8 10 1014.6 1014.4 0.2
20/12:30am 10.8 6.4 4.5 65 2.9 NNW 17 19 9 10 1014.6 1014.4 0.2
20/12:00am 11.2 7.2 4.7 64 3.0 NNW 15 20 8 11 1014.7 1014.5 0.2
 
Date/Time
EDT
Temp
°C
App
Temp
°C
Dew
Point
Rel
Hum
%
Delta-T
°C
Wind Press
QNH
hPa
Press
MSL
hPa
Rain
since 9 am
mm
Dir
 
Spd
km/h
Gust
km/h
Spd
kts
Gust
kts
19/11:30pm 10.4 6.3 4.1 65 2.8 NNW 15 19 8 10 1015.1 1014.9 0.2
19/11:00pm 10.1 6.0 4.3 67 2.6 NNW 15 19 8 10 1014.9 1014.7 0.2
19/10:30pm 12.2 7.1 3.9 57 3.8 W 20 26 11 14 1015.0 1014.8 0.2
19/10:00pm 13.0 7.9 3.9 54 4.1 WNW 20 28 11 15 1014.9 1014.7 0.2
19/09:30pm 13.9 9.2 3.1 48 4.9 NW 17 24 9 13 1014.8 1014.6 0.2
19/09:00pm 13.7 10.5 2.9 48 4.8 NNW 9 15 5 8 1014.5 1014.3 0.2
19/08:30pm 14.6 9.3 2.8 45 5.3 W 20 28 11 15 1014.1 1013.9 0.2
19/08:00pm 14.9 8.7 2.4 43 5.6 W 24 32 13 17 1013.6 1013.4 0.2
19/07:30pm 15.4 9.7 2.9 43 5.7 W 22 30 12 16 1013.2 1013.0 0.2
19/07:00pm 16.0 9.5 2.4 40 6.2 W 26 32 14 17 1013.0 1012.8 0.2

Other Formats:

Comma delimited format used in spreadsheet applications
http://www.bom.gov.au/fwo/IDT60801/IDT60801.95966.axf

JavaScript Object Notation format (JSON) in row-major order
http://www.bom.gov.au/fwo/IDT60801/IDT60801.95966.json